sensor_id;sensor_type;location;lat;lon;timestamp;P1;durP1;ratioP1;P2;durP2;ratioP2
14326;SDS011;7247;53.330;-1.180;2023-11-22T00:01:55;10.73;;;3.97;;
14326;SDS011;7247;53.330;-1.180;2023-11-22T00:04:22;11.00;;;3.83;;
14326;SDS011;7247;53.330;-1.180;2023-11-22T00:06:49;8.77;;;3.90;;
14326;SDS011;7247;53.330;-1.180;2023-11-22T00:09:15;7.63;;;3.80;;
14326;SDS011;7247;53.330;-1.180;2023-11-22T00:11:47;10.23;;;4.70;;
14326;SDS011;7247;53.330;-1.180;2023-11-22T00:14:13;10.13;;;6.53;;
14326;SDS011;7247;53.330;-1.180;2023-11-22T00:16:41;21.17;;;11.60;;
14326;SDS011;7247;53.330;-1.180;2023-11-22T00:19:07;23.10;;;17.13;;
14326;SDS011;7247;53.330;-1.180;2023-11-22T00:21:34;24.97;;;20.30;;
14326;SDS011;7247;53.330;-1.180;2023-11-22T00:24:00;27.10;;;21.97;;
14326;SDS011;7247;53.330;-1.180;2023-11-22T00:26:27;26.67;;;23.23;;
14326;SDS011;7247;53.330;-1.180;2023-11-22T00:28:53;28.40;;;25.33;;
14326;SDS011;7247;53.330;-1.180;2023-11-22T00:31:20;28.77;;;25.63;;
14326;SDS011;7247;53.330;-1.180;2023-11-22T00:33:47;29.77;;;26.40;;
14326;SDS011;7247;53.330;-1.180;2023-11-22T00:36:14;33.13;;;27.27;;
14326;SDS011;7247;53.330;-1.180;2023-11-22T00:38:41;32.70;;;26.53;;
14326;SDS011;7247;53.330;-1.180;2023-11-22T00:41:09;35.60;;;31.87;;
14326;SDS011;7247;53.330;-1.180;2023-11-22T00:43:36;30.07;;;26.90;;
14326;SDS011;7247;53.330;-1.180;2023-11-22T00:46:02;27.07;;;24.23;;
14326;SDS011;7247;53.330;-1.180;2023-11-22T00:48:29;19.77;;;17.70;;
14326;SDS011;7247;53.330;-1.180;2023-11-22T00:50:57;11.10;;;8.93;;
14326;SDS011;7247;53.330;-1.180;2023-11-22T00:53:23;13.50;;;7.97;;
14326;SDS011;7247;53.330;-1.180;2023-11-22T00:55:49;11.10;;;7.23;;
14326;SDS011;7247;53.330;-1.180;2023-11-22T00:58:16;10.73;;;6.37;;
14326;SDS011;7247;53.330;-1.180;2023-11-22T01:00:42;11.73;;;6.53;;
14326;SDS011;7247;53.330;-1.180;2023-11-22T01:03:09;9.97;;;5.60;;
14326;SDS011;7247;53.330;-1.180;2023-11-22T01:05:36;8.93;;;5.73;;
14326;SDS011;7247;53.330;-1.180;2023-11-22T01:08:04;10.90;;;5.47;;
14326;SDS011;7247;53.330;-1.180;2023-11-22T01:10:31;10.30;;;5.77;;
14326;SDS011;7247;53.330;-1.180;2023-11-22T01:12:57;11.67;;;5.03;;
14326;SDS011;7247;53.330;-1.180;2023-11-22T01:15:23;14.90;;;5.63;;
14326;SDS011;7247;53.330;-1.180;2023-11-22T01:17:50;12.07;;;6.40;;
14326;SDS011;7247;53.330;-1.180;2023-11-22T01:20:16;9.10;;;5.70;;
14326;SDS011;7247;53.330;-1.180;2023-11-22T01:22:43;10.63;;;6.20;;
14326;SDS011;7247;53.330;-1.180;2023-11-22T01:25:11;10.63;;;6.40;;
14326;SDS011;7247;53.330;-1.180;2023-11-22T01:27:38;8.43;;;6.10;;
14326;SDS011;7247;53.330;-1.180;2023-11-22T01:30:04;8.23;;;6.13;;
14326;SDS011;7247;53.330;-1.180;2023-11-22T01:32:32;13.23;;;6.00;;
14326;SDS011;7247;53.330;-1.180;2023-11-22T01:34:59;14.13;;;6.30;;
14326;SDS011;7247;53.330;-1.180;2023-11-22T01:37:26;11.90;;;6.20;;
14326;SDS011;7247;53.330;-1.180;2023-11-22T01:39:52;11.50;;;6.07;;
14326;SDS011;7247;53.330;-1.180;2023-11-22T01:42:20;9.07;;;6.57;;
14326;SDS011;7247;53.330;-1.180;2023-11-22T01:44:48;8.57;;;6.90;;
14326;SDS011;7247;53.330;-1.180;2023-11-22T01:47:15;10.83;;;6.57;;
14326;SDS011;7247;53.330;-1.180;2023-11-22T01:49:41;9.83;;;6.67;;
14326;SDS011;7247;53.330;-1.180;2023-11-22T01:52:08;11.90;;;6.57;;
14326;SDS011;7247;53.330;-1.180;2023-11-22T01:54:34;10.07;;;6.37;;
14326;SDS011;7247;53.330;-1.180;2023-11-22T01:57:01;12.83;;;6.83;;
14326;SDS011;7247;53.330;-1.180;2023-11-22T01:59:29;10.40;;;6.00;;
14326;SDS011;7247;53.330;-1.180;2023-11-22T02:01:56;8.73;;;6.33;;
14326;SDS011;7247;53.330;-1.180;2023-11-22T02:04:23;11.70;;;6.33;;
14326;SDS011;7247;53.330;-1.180;2023-11-22T02:06:50;11.37;;;7.33;;
14326;SDS011;7247;53.330;-1.180;2023-11-22T02:09:17;9.90;;;7.57;;
14326;SDS011;7247;53.330;-1.180;2023-11-22T02:11:43;13.63;;;7.73;;
14326;SDS011;7247;53.330;-1.180;2023-11-22T02:14:12;9.80;;;7.20;;
14326;SDS011;7247;53.330;-1.180;2023-11-22T02:16:40;10.60;;;6.93;;
14326;SDS011;7247;53.330;-1.180;2023-11-22T02:19:08;9.97;;;6.87;;
14326;SDS011;7247;53.330;-1.180;2023-11-22T02:21:38;7.93;;;6.40;;
14326;SDS011;7247;53.330;-1.180;2023-11-22T02:24:07;8.17;;;6.27;;
14326;SDS011;7247;53.330;-1.180;2023-11-22T02:26:33;8.97;;;6.50;;
14326;SDS011;7247;53.330;-1.180;2023-11-22T02:29:01;8.47;;;6.50;;
14326;SDS011;7247;53.330;-1.180;2023-11-22T02:31:29;11.10;;;6.57;;
14326;SDS011;7247;53.330;-1.180;2023-11-22T02:33:55;11.90;;;6.87;;
14326;SDS011;7247;53.330;-1.180;2023-11-22T02:36:21;8.80;;;6.43;;
14326;SDS011;7247;53.330;-1.180;2023-11-22T02:38:49;11.77;;;7.30;;
14326;SDS011;7247;53.330;-1.180;2023-11-22T02:41:17;10.17;;;6.87;;
14326;SDS011;7247;53.330;-1.180;2023-11-22T02:43:44;9.77;;;7.43;;
14326;SDS011;7247;53.330;-1.180;2023-11-22T02:46:11;11.47;;;7.80;;
14326;SDS011;7247;53.330;-1.180;2023-11-22T02:48:37;11.83;;;8.00;;
14326;SDS011;7247;53.330;-1.180;2023-11-22T02:51:04;11.77;;;7.70;;
14326;SDS011;7247;53.330;-1.180;2023-11-22T02:53:31;11.43;;;7.90;;
14326;SDS011;7247;53.330;-1.180;2023-11-22T02:55:59;10.73;;;7.63;;
14326;SDS011;7247;53.330;-1.180;2023-11-22T02:58:26;11.17;;;8.10;;
14326;SDS011;7247;53.330;-1.180;2023-11-22T03:00:53;11.07;;;7.60;;
14326;SDS011;7247;53.330;-1.180;2023-11-22T03:03:22;14.43;;;8.40;;
14326;SDS011;7247;53.330;-1.180;2023-11-22T03:05:49;12.30;;;8.60;;
14326;SDS011;7247;53.330;-1.180;2023-11-22T03:08:15;11.93;;;9.30;;
14326;SDS011;7247;53.330;-1.180;2023-11-22T03:10:42;11.00;;;8.33;;
14326;SDS011;7247;53.330;-1.180;2023-11-22T03:13:08;14.63;;;9.20;;
14326;SDS011;7247;53.330;-1.180;2023-11-22T03:15:36;11.60;;;8.73;;
14326;SDS011;7247;53.330;-1.180;2023-11-22T03:18:02;13.47;;;9.27;;
14326;SDS011;7247;53.330;-1.180;2023-11-22T03:20:31;16.97;;;9.33;;
14326;SDS011;7247;53.330;-1.180;2023-11-22T03:22:57;13.27;;;9.20;;
14326;SDS011;7247;53.330;-1.180;2023-11-22T03:25:24;15.80;;;9.70;;
14326;SDS011;7247;53.330;-1.180;2023-11-22T03:27:50;12.30;;;8.93;;
14326;SDS011;7247;53.330;-1.180;2023-11-22T03:30:17;14.00;;;9.87;;
14326;SDS011;7247;53.330;-1.180;2023-11-22T03:32:44;13.17;;;9.80;;
14326;SDS011;7247;53.330;-1.180;2023-11-22T03:35:11;16.77;;;10.00;;
14326;SDS011;7247;53.330;-1.180;2023-11-22T03:37:38;12.77;;;9.33;;
14326;SDS011;7247;53.330;-1.180;2023-11-22T03:40:05;13.43;;;9.43;;
14326;SDS011;7247;53.330;-1.180;2023-11-22T03:42:31;14.23;;;9.57;;
14326;SDS011;7247;53.330;-1.180;2023-11-22T03:44:58;14.33;;;10.13;;
14326;SDS011;7247;53.330;-1.180;2023-11-22T03:47:24;16.00;;;10.60;;
14326;SDS011;7247;53.330;-1.180;2023-11-22T03:49:52;11.20;;;8.77;;
14326;SDS011;7247;53.330;-1.180;2023-11-22T03:52:18;15.20;;;10.10;;
14326;SDS011;7247;53.330;-1.180;2023-11-22T03:54:45;13.50;;;9.67;;
14326;SDS011;7247;53.330;-1.180;2023-11-22T03:57:11;15.90;;;8.97;;
14326;SDS011;7247;53.330;-1.180;2023-11-22T03:59:37;12.37;;;9.40;;
14326;SDS011;7247;53.330;-1.180;2023-11-22T04:02:06;12.07;;;9.10;;
14326;SDS011;7247;53.330;-1.180;2023-11-22T04:04:33;12.53;;;9.27;;
14326;SDS011;7247;53.330;-1.180;2023-11-22T04:07:01;12.60;;;8.23;;
14326;SDS011;7247;53.330;-1.180;2023-11-22T04:09:27;10.47;;;7.87;;
14326;SDS011;7247;53.330;-1.180;2023-11-22T04:11:54;14.00;;;8.73;;
14326;SDS011;7247;53.330;-1.180;2023-11-22T04:14:21;10.57;;;8.13;;
14326;SDS011;7247;53.330;-1.180;2023-11-22T04:16:47;12.77;;;7.83;;
14326;SDS011;7247;53.330;-1.180;2023-11-22T04:19:13;14.87;;;8.33;;
14326;SDS011;7247;53.330;-1.180;2023-11-22T04:21:40;13.70;;;7.93;;
14326;SDS011;7247;53.330;-1.180;2023-11-22T04:24:08;12.00;;;8.00;;
14326;SDS011;7247;53.330;-1.180;2023-11-22T04:26:34;12.57;;;7.80;;
14326;SDS011;7247;53.330;-1.180;2023-11-22T04:29:01;11.30;;;7.60;;
14326;SDS011;7247;53.330;-1.180;2023-11-22T04:31:29;12.83;;;7.73;;
14326;SDS011;7247;53.330;-1.180;2023-11-22T04:33:55;10.80;;;7.30;;
14326;SDS011;7247;53.330;-1.180;2023-11-22T04:36:22;10.73;;;7.07;;
14326;SDS011;7247;53.330;-1.180;2023-11-22T04:38:49;20.53;;;14.37;;
14326;SDS011;7247;53.330;-1.180;2023-11-22T04:41:17;15.33;;;10.07;;
14326;SDS011;7247;53.330;-1.180;2023-11-22T04:43:44;26.50;;;17.33;;
14326;SDS011;7247;53.330;-1.180;2023-11-22T04:46:11;31.83;;;20.77;;
14326;SDS011;7247;53.330;-1.180;2023-11-22T04:48:37;24.00;;;17.03;;
14326;SDS011;7247;53.330;-1.180;2023-11-22T04:51:07;21.43;;;15.53;;
14326;SDS011;7247;53.330;-1.180;2023-11-22T04:53:33;12.60;;;7.20;;
14326;SDS011;7247;53.330;-1.180;2023-11-22T04:56:00;7.73;;;5.27;;
14326;SDS011;7247;53.330;-1.180;2023-11-22T04:58:31;6.40;;;3.93;;
14326;SDS011;7247;53.330;-1.180;2023-11-22T05:00:58;5.97;;;3.37;;
14326;SDS011;7247;53.330;-1.180;2023-11-22T05:03:24;5.40;;;3.20;;
14326;SDS011;7247;53.330;-1.180;2023-11-22T05:05:50;7.67;;;3.17;;
14326;SDS011;7247;53.330;-1.180;2023-11-22T05:08:17;7.00;;;3.10;;
14326;SDS011;7247;53.330;-1.180;2023-11-22T05:10:43;5.77;;;2.90;;
14326;SDS011;7247;53.330;-1.180;2023-11-22T05:13:10;6.27;;;2.77;;
14326;SDS011;7247;53.330;-1.180;2023-11-22T05:15:38;4.83;;;2.90;;
14326;SDS011;7247;53.330;-1.180;2023-11-22T05:18:04;6.47;;;2.60;;
14326;SDS011;7247;53.330;-1.180;2023-11-22T05:20:31;6.77;;;2.80;;
14326;SDS011;7247;53.330;-1.180;2023-11-22T05:22:58;6.50;;;2.90;;
14326;SDS011;7247;53.330;-1.180;2023-11-22T05:25:24;8.40;;;2.70;;
14326;SDS011;7247;53.330;-1.180;2023-11-22T05:27:51;7.20;;;2.73;;
14326;SDS011;7247;53.330;-1.180;2023-11-22T05:30:17;6.63;;;2.90;;
14326;SDS011;7247;53.330;-1.180;2023-11-22T05:32:45;6.30;;;2.90;;
14326;SDS011;7247;53.330;-1.180;2023-11-22T05:35:11;5.63;;;2.60;;
14326;SDS011;7247;53.330;-1.180;2023-11-22T05:37:38;5.87;;;2.70;;
14326;SDS011;7247;53.330;-1.180;2023-11-22T05:40:04;4.63;;;2.50;;
14326;SDS011;7247;53.330;-1.180;2023-11-22T05:42:31;4.47;;;2.50;;
14326;SDS011;7247;53.330;-1.180;2023-11-22T05:44:58;7.30;;;2.77;;
14326;SDS011;7247;53.330;-1.180;2023-11-22T05:47:24;4.80;;;2.70;;
14326;SDS011;7247;53.330;-1.180;2023-11-22T05:49:52;4.83;;;2.90;;
14326;SDS011;7247;53.330;-1.180;2023-11-22T05:52:19;5.93;;;3.13;;
14326;SDS011;7247;53.330;-1.180;2023-11-22T05:54:47;7.07;;;3.20;;
14326;SDS011;7247;53.330;-1.180;2023-11-22T05:57:13;5.00;;;2.90;;
14326;SDS011;7247;53.330;-1.180;2023-11-22T05:59:40;7.03;;;3.00;;
14326;SDS011;7247;53.330;-1.180;2023-11-22T06:02:06;4.97;;;3.23;;
14326;SDS011;7247;53.330;-1.180;2023-11-22T06:04:33;9.10;;;3.10;;
14326;SDS011;7247;53.330;-1.180;2023-11-22T06:07:01;3.80;;;3.00;;
14326;SDS011;7247;53.330;-1.180;2023-11-22T06:09:27;6.83;;;3.20;;
14326;SDS011;7247;53.330;-1.180;2023-11-22T06:11:54;9.13;;;2.77;;
14326;SDS011;7247;53.330;-1.180;2023-11-22T06:14:21;5.73;;;2.83;;
14326;SDS011;7247;53.330;-1.180;2023-11-22T06:16:47;4.17;;;2.80;;
14326;SDS011;7247;53.330;-1.180;2023-11-22T06:19:13;6.27;;;2.80;;
14326;SDS011;7247;53.330;-1.180;2023-11-22T06:21:40;5.87;;;3.07;;
14326;SDS011;7247;53.330;-1.180;2023-11-22T06:24:08;5.17;;;2.97;;
14326;SDS011;7247;53.330;-1.180;2023-11-22T06:26:40;3.73;;;2.70;;
14326;SDS011;7247;53.330;-1.180;2023-11-22T06:29:07;7.60;;;2.93;;
14326;SDS011;7247;53.330;-1.180;2023-11-22T06:31:33;6.90;;;3.63;;
14326;SDS011;7247;53.330;-1.180;2023-11-22T06:34:00;8.40;;;4.83;;
14326;SDS011;7247;53.330;-1.180;2023-11-22T06:36:26;10.17;;;5.77;;
14326;SDS011;7247;53.330;-1.180;2023-11-22T06:38:53;10.67;;;6.27;;
14326;SDS011;7247;53.330;-1.180;2023-11-22T06:41:20;8.60;;;3.87;;
14326;SDS011;7247;53.330;-1.180;2023-11-22T06:43:47;6.77;;;3.40;;
14326;SDS011;7247;53.330;-1.180;2023-11-22T06:46:14;10.67;;;4.33;;
14326;SDS011;7247;53.330;-1.180;2023-11-22T06:48:41;15.23;;;7.67;;
14326;SDS011;7247;53.330;-1.180;2023-11-22T06:51:08;15.97;;;6.10;;
14326;SDS011;7247;53.330;-1.180;2023-11-22T06:53:35;8.07;;;4.20;;
14326;SDS011;7247;53.330;-1.180;2023-11-22T06:56:01;8.43;;;4.10;;
14326;SDS011;7247;53.330;-1.180;2023-11-22T06:58:30;4.87;;;2.63;;
14326;SDS011;7247;53.330;-1.180;2023-11-22T07:00:56;3.97;;;2.00;;
14326;SDS011;7247;53.330;-1.180;2023-11-22T07:03:22;7.73;;;2.60;;
14326;SDS011;7247;53.330;-1.180;2023-11-22T07:05:49;8.43;;;2.70;;
14326;SDS011;7247;53.330;-1.180;2023-11-22T07:08:15;8.77;;;2.50;;
14326;SDS011;7247;53.330;-1.180;2023-11-22T07:10:42;5.23;;;2.13;;
14326;SDS011;7247;53.330;-1.180;2023-11-22T07:13:10;4.70;;;1.80;;
14326;SDS011;7247;53.330;-1.180;2023-11-22T07:15:37;6.37;;;2.10;;
14326;SDS011;7247;53.330;-1.180;2023-11-22T07:18:04;4.10;;;1.90;;
14326;SDS011;7247;53.330;-1.180;2023-11-22T07:20:30;4.43;;;1.87;;
14326;SDS011;7247;53.330;-1.180;2023-11-22T07:22:57;4.63;;;2.00;;
14326;SDS011;7247;53.330;-1.180;2023-11-22T07:25:25;5.17;;;1.70;;
14326;SDS011;7247;53.330;-1.180;2023-11-22T07:27:51;5.43;;;1.67;;
14326;SDS011;7247;53.330;-1.180;2023-11-22T07:30:18;6.93;;;1.77;;
14326;SDS011;7247;53.330;-1.180;2023-11-22T07:32:46;2.90;;;1.40;;
14326;SDS011;7247;53.330;-1.180;2023-11-22T07:35:13;3.00;;;1.60;;
14326;SDS011;7247;53.330;-1.180;2023-11-22T07:37:40;2.67;;;1.30;;
14326;SDS011;7247;53.330;-1.180;2023-11-22T07:40:07;5.50;;;1.70;;
14326;SDS011;7247;53.330;-1.180;2023-11-22T07:42:34;4.57;;;1.40;;
14326;SDS011;7247;53.330;-1.180;2023-11-22T07:45:01;5.57;;;1.70;;
14326;SDS011;7247;53.330;-1.180;2023-11-22T07:47:27;6.10;;;1.60;;
14326;SDS011;7247;53.330;-1.180;2023-11-22T07:49:55;4.77;;;1.30;;
14326;SDS011;7247;53.330;-1.180;2023-11-22T07:52:22;3.90;;;1.63;;
14326;SDS011;7247;53.330;-1.180;2023-11-22T07:54:54;4.67;;;1.70;;
14326;SDS011;7247;53.330;-1.180;2023-11-22T07:57:21;7.00;;;1.50;;
14326;SDS011;7247;53.330;-1.180;2023-11-22T07:59:48;5.07;;;1.60;;
14326;SDS011;7247;53.330;-1.180;2023-11-22T08:02:14;5.47;;;1.70;;
14326;SDS011;7247;53.330;-1.180;2023-11-22T08:04:43;6.53;;;1.83;;
14326;SDS011;7247;53.330;-1.180;2023-11-22T08:07:11;5.93;;;2.00;;
14326;SDS011;7247;53.330;-1.180;2023-11-22T08:09:39;4.50;;;1.60;;
14326;SDS011;7247;53.330;-1.180;2023-11-22T08:12:06;3.67;;;1.43;;
14326;SDS011;7247;53.330;-1.180;2023-11-22T08:14:33;4.40;;;1.70;;
14326;SDS011;7247;53.330;-1.180;2023-11-22T08:16:59;3.50;;;1.40;;
14326;SDS011;7247;53.330;-1.180;2023-11-22T08:19:26;4.40;;;1.50;;
14326;SDS011;7247;53.330;-1.180;2023-11-22T08:21:53;4.57;;;1.50;;
14326;SDS011;7247;53.330;-1.180;2023-11-22T08:24:21;7.37;;;1.87;;
14326;SDS011;7247;53.330;-1.180;2023-11-22T08:26:47;8.60;;;2.80;;
14326;SDS011;7247;53.330;-1.180;2023-11-22T08:29:14;12.77;;;3.97;;
14326;SDS011;7247;53.330;-1.180;2023-11-22T08:31:41;11.43;;;4.50;;
14326;SDS011;7247;53.330;-1.180;2023-11-22T08:34:07;9.90;;;4.87;;
14326;SDS011;7247;53.330;-1.180;2023-11-22T08:36:34;9.23;;;3.50;;
14326;SDS011;7247;53.330;-1.180;2023-11-22T08:39:00;11.10;;;3.57;;
14326;SDS011;7247;53.330;-1.180;2023-11-22T08:41:28;10.97;;;3.20;;
14326;SDS011;7247;53.330;-1.180;2023-11-22T08:43:55;10.83;;;3.13;;
14326;SDS011;7247;53.330;-1.180;2023-11-22T08:46:21;10.63;;;2.93;;
14326;SDS011;7247;53.330;-1.180;2023-11-22T08:48:48;12.17;;;4.70;;
14326;SDS011;7247;53.330;-1.180;2023-11-22T08:51:15;7.57;;;3.23;;
14326;SDS011;7247;53.330;-1.180;2023-11-22T08:53:42;8.63;;;3.50;;
14326;SDS011;7247;53.330;-1.180;2023-11-22T08:56:09;15.80;;;5.00;;
14326;SDS011;7247;53.330;-1.180;2023-11-22T08:58:37;14.47;;;4.00;;
14326;SDS011;7247;53.330;-1.180;2023-11-22T09:01:04;9.27;;;2.90;;
14326;SDS011;7247;53.330;-1.180;2023-11-22T09:03:31;8.50;;;2.20;;
14326;SDS011;7247;53.330;-1.180;2023-11-22T09:05:58;6.23;;;2.13;;
14326;SDS011;7247;53.330;-1.180;2023-11-22T09:08:25;7.43;;;2.33;;
14326;SDS011;7247;53.330;-1.180;2023-11-22T09:10:51;6.90;;;2.63;;
14326;SDS011;7247;53.330;-1.180;2023-11-22T09:13:18;7.40;;;3.23;;
14326;SDS011;7247;53.330;-1.180;2023-11-22T09:15:47;9.13;;;3.67;;
14326;SDS011;7247;53.330;-1.180;2023-11-22T09:18:13;13.80;;;4.03;;
14326;SDS011;7247;53.330;-1.180;2023-11-22T09:20:41;11.40;;;4.37;;
14326;SDS011;7247;53.330;-1.180;2023-11-22T09:23:09;11.10;;;3.77;;
14326;SDS011;7247;53.330;-1.180;2023-11-22T09:25:35;8.83;;;3.53;;
14326;SDS011;7247;53.330;-1.180;2023-11-22T09:28:02;10.77;;;4.00;;
14326;SDS011;7247;53.330;-1.180;2023-11-22T09:30:29;7.07;;;2.90;;
14326;SDS011;7247;53.330;-1.180;2023-11-22T09:33:02;8.93;;;2.73;;
14326;SDS011;7247;53.330;-1.180;2023-11-22T09:35:29;6.70;;;2.43;;
14326;SDS011;7247;53.330;-1.180;2023-11-22T09:37:56;6.63;;;2.47;;
14326;SDS011;7247;53.330;-1.180;2023-11-22T09:40:23;7.60;;;2.40;;
14326;SDS011;7247;53.330;-1.180;2023-11-22T09:42:49;5.43;;;2.20;;
14326;SDS011;7247;53.330;-1.180;2023-11-22T09:45:18;6.33;;;2.00;;
14326;SDS011;7247;53.330;-1.180;2023-11-22T09:47:44;3.90;;;1.87;;
14326;SDS011;7247;53.330;-1.180;2023-11-22T09:50:12;3.97;;;1.77;;
14326;SDS011;7247;53.330;-1.180;2023-11-22T09:52:43;5.90;;;2.00;;
14326;SDS011;7247;53.330;-1.180;2023-11-22T09:55:10;4.17;;;2.10;;
14326;SDS011;7247;53.330;-1.180;2023-11-22T09:57:37;3.43;;;2.00;;
14326;SDS011;7247;53.330;-1.180;2023-11-22T10:00:05;5.10;;;2.17;;
14326;SDS011;7247;53.330;-1.180;2023-11-22T10:02:33;5.13;;;2.40;;
14326;SDS011;7247;53.330;-1.180;2023-11-22T10:05:00;5.23;;;2.23;;
14326;SDS011;7247;53.330;-1.180;2023-11-22T10:07:28;3.23;;;2.13;;
14326;SDS011;7247;53.330;-1.180;2023-11-22T10:09:54;4.57;;;1.97;;
14326;SDS011;7247;53.330;-1.180;2023-11-22T10:12:22;3.80;;;1.90;;
14326;SDS011;7247;53.330;-1.180;2023-11-22T10:14:49;3.33;;;1.50;;
14326;SDS011;7247;53.330;-1.180;2023-11-22T10:17:15;2.73;;;1.70;;
14326;SDS011;7247;53.330;-1.180;2023-11-22T10:19:41;5.90;;;2.57;;
14326;SDS011;7247;53.330;-1.180;2023-11-22T10:22:08;2.87;;;1.97;;
14326;SDS011;7247;53.330;-1.180;2023-11-22T10:24:36;2.97;;;1.90;;
14326;SDS011;7247;53.330;-1.180;2023-11-22T10:27:02;4.40;;;1.73;;
14326;SDS011;7247;53.330;-1.180;2023-11-22T10:29:29;3.73;;;1.73;;
14326;SDS011;7247;53.330;-1.180;2023-11-22T10:31:55;2.03;;;1.77;;
14326;SDS011;7247;53.330;-1.180;2023-11-22T10:34:22;2.50;;;2.30;;
14326;SDS011;7247;53.330;-1.180;2023-11-22T10:36:49;4.50;;;3.20;;
14326;SDS011;7247;53.330;-1.180;2023-11-22T10:39:18;4.23;;;3.40;;
14326;SDS011;7247;53.330;-1.180;2023-11-22T10:41:46;6.20;;;3.50;;
14326;SDS011;7247;53.330;-1.180;2023-11-22T10:44:13;5.00;;;3.60;;
14326;SDS011;7247;53.330;-1.180;2023-11-22T10:46:43;5.03;;;2.87;;
14326;SDS011;7247;53.330;-1.180;2023-11-22T10:49:10;2.87;;;2.00;;
14326;SDS011;7247;53.330;-1.180;2023-11-22T10:51:37;2.60;;;1.87;;
14326;SDS011;7247;53.330;-1.180;2023-11-22T10:54:05;4.13;;;1.50;;
14326;SDS011;7247;53.330;-1.180;2023-11-22T10:56:34;2.17;;;1.60;;
14326;SDS011;7247;53.330;-1.180;2023-11-22T10:59:04;1.90;;;1.50;;
14326;SDS011;7247;53.330;-1.180;2023-11-22T11:01:33;3.27;;;1.40;;
14326;SDS011;7247;53.330;-1.180;2023-11-22T11:04:00;3.60;;;1.30;;
14326;SDS011;7247;53.330;-1.180;2023-11-22T11:06:31;2.50;;;1.20;;
14326;SDS011;7247;53.330;-1.180;2023-11-22T11:11:25;3.00;;;1.30;;
14326;SDS011;7247;53.330;-1.180;2023-11-22T11:13:52;3.37;;;1.10;;
14326;SDS011;7247;53.330;-1.180;2023-11-22T11:16:20;2.83;;;1.40;;
14326;SDS011;7247;53.330;-1.180;2023-11-22T11:18:47;3.30;;;1.43;;
14326;SDS011;7247;53.330;-1.180;2023-11-22T11:21:13;3.07;;;1.50;;
14326;SDS011;7247;53.330;-1.180;2023-11-22T11:23:41;2.30;;;1.30;;
14326;SDS011;7247;53.330;-1.180;2023-11-22T11:26:09;2.00;;;1.40;;
14326;SDS011;7247;53.330;-1.180;2023-11-22T11:28:44;2.77;;;1.90;;
14326;SDS011;7247;53.330;-1.180;2023-11-22T11:31:10;2.43;;;1.70;;
14326;SDS011;7247;53.330;-1.180;2023-11-22T11:36:31;2.63;;;2.20;;
14326;SDS011;7247;53.330;-1.180;2023-11-22T11:38:58;3.20;;;2.30;;
14326;SDS011;7247;53.330;-1.180;2023-11-22T11:41:26;3.50;;;3.10;;
14326;SDS011;7247;53.330;-1.180;2023-11-22T11:43:53;5.20;;;3.03;;
14326;SDS011;7247;53.330;-1.180;2023-11-22T11:46:19;5.07;;;3.10;;
14326;SDS011;7247;53.330;-1.180;2023-11-22T11:48:48;4.47;;;3.30;;
14326;SDS011;7247;53.330;-1.180;2023-11-22T11:51:15;6.30;;;3.70;;
14326;SDS011;7247;53.330;-1.180;2023-11-22T11:53:44;6.67;;;4.33;;
14326;SDS011;7247;53.330;-1.180;2023-11-22T11:56:10;4.90;;;3.93;;
14326;SDS011;7247;53.330;-1.180;2023-11-22T11:58:37;6.40;;;4.40;;
14326;SDS011;7247;53.330;-1.180;2023-11-22T12:01:04;4.40;;;4.00;;
14326;SDS011;7247;53.330;-1.180;2023-11-22T12:03:30;5.83;;;4.60;;
14326;SDS011;7247;53.330;-1.180;2023-11-22T12:05:57;5.23;;;4.63;;
14326;SDS011;7247;53.330;-1.180;2023-11-22T12:08:24;6.20;;;5.07;;
14326;SDS011;7247;53.330;-1.180;2023-11-22T12:10:55;7.27;;;5.43;;
14326;SDS011;7247;53.330;-1.180;2023-11-22T12:13:24;7.17;;;6.50;;
14326;SDS011;7247;53.330;-1.180;2023-11-22T12:15:50;7.97;;;7.27;;
14326;SDS011;7247;53.330;-1.180;2023-11-22T12:18:18;8.60;;;7.77;;
14326;SDS011;7247;53.330;-1.180;2023-11-22T12:20:53;8.90;;;8.00;;
14326;SDS011;7247;53.330;-1.180;2023-11-22T12:23:19;9.90;;;9.00;;
14326;SDS011;7247;53.330;-1.180;2023-11-22T12:25:46;9.83;;;8.80;;
14326;SDS011;7247;53.330;-1.180;2023-11-22T12:28:17;9.63;;;8.73;;
14326;SDS011;7247;53.330;-1.180;2023-11-22T12:30:44;9.60;;;8.60;;
14326;SDS011;7247;53.330;-1.180;2023-11-22T12:33:10;7.80;;;7.10;;
14326;SDS011;7247;53.330;-1.180;2023-11-22T12:35:38;7.53;;;6.90;;
14326;SDS011;7247;53.330;-1.180;2023-11-22T12:38:06;8.37;;;7.40;;
14326;SDS011;7247;53.330;-1.180;2023-11-22T12:40:32;7.27;;;6.50;;
14326;SDS011;7247;53.330;-1.180;2023-11-22T12:42:59;7.70;;;6.90;;
14326;SDS011;7247;53.330;-1.180;2023-11-22T12:45:28;6.63;;;6.07;;
14326;SDS011;7247;53.330;-1.180;2023-11-22T12:47:55;7.20;;;6.50;;
14326;SDS011;7247;53.330;-1.180;2023-11-22T12:50:30;7.50;;;6.80;;
14326;SDS011;7247;53.330;-1.180;2023-11-22T12:52:57;7.97;;;7.17;;
14326;SDS011;7247;53.330;-1.180;2023-11-22T12:55:23;8.10;;;7.30;;
14326;SDS011;7247;53.330;-1.180;2023-11-22T12:57:55;8.70;;;6.77;;
14326;SDS011;7247;53.330;-1.180;2023-11-22T13:00:22;8.50;;;7.10;;
14326;SDS011;7247;53.330;-1.180;2023-11-22T13:02:51;9.13;;;7.17;;
14326;SDS011;7247;53.330;-1.180;2023-11-22T13:05:17;9.07;;;7.60;;
14326;SDS011;7247;53.330;-1.180;2023-11-22T13:07:44;8.50;;;7.70;;
14326;SDS011;7247;53.330;-1.180;2023-11-22T13:10:14;8.73;;;7.83;;
14326;SDS011;7247;53.330;-1.180;2023-11-22T13:12:41;8.93;;;8.00;;
14326;SDS011;7247;53.330;-1.180;2023-11-22T13:15:09;9.27;;;8.40;;
14326;SDS011;7247;53.330;-1.180;2023-11-22T13:17:36;9.33;;;8.53;;
14326;SDS011;7247;53.330;-1.180;2023-11-22T13:20:07;9.67;;;8.77;;
14326;SDS011;7247;53.330;-1.180;2023-11-22T13:22:39;8.97;;;7.90;;
14326;SDS011;7247;53.330;-1.180;2023-11-22T13:25:05;8.03;;;7.33;;
14326;SDS011;7247;53.330;-1.180;2023-11-22T13:27:32;8.00;;;7.23;;
14326;SDS011;7247;53.330;-1.180;2023-11-22T13:30:00;7.03;;;6.33;;
14326;SDS011;7247;53.330;-1.180;2023-11-22T13:32:26;7.00;;;5.90;;
14326;SDS011;7247;53.330;-1.180;2023-11-22T13:34:52;6.13;;;5.63;;
14326;SDS011;7247;53.330;-1.180;2023-11-22T13:37:23;7.07;;;5.87;;
14326;SDS011;7247;53.330;-1.180;2023-11-22T13:39:49;6.83;;;6.13;;
14326;SDS011;7247;53.330;-1.180;2023-11-22T13:42:16;6.20;;;5.17;;
14326;SDS011;7247;53.330;-1.180;2023-11-22T13:44:42;6.40;;;5.67;;
14326;SDS011;7247;53.330;-1.180;2023-11-22T13:47:09;6.30;;;5.63;;
14326;SDS011;7247;53.330;-1.180;2023-11-22T13:49:35;6.83;;;4.40;;
14326;SDS011;7247;53.330;-1.180;2023-11-22T13:52:02;5.93;;;4.90;;
14326;SDS011;7247;53.330;-1.180;2023-11-22T13:54:30;5.40;;;4.70;;
14326;SDS011;7247;53.330;-1.180;2023-11-22T13:56:57;5.20;;;4.70;;
14326;SDS011;7247;53.330;-1.180;2023-11-22T13:59:23;4.67;;;4.10;;
14326;SDS011;7247;53.330;-1.180;2023-11-22T14:01:50;6.37;;;4.00;;
14326;SDS011;7247;53.330;-1.180;2023-11-22T14:04:17;5.70;;;3.80;;
14326;SDS011;7247;53.330;-1.180;2023-11-22T14:06:43;3.77;;;3.20;;
14326;SDS011;7247;53.330;-1.180;2023-11-22T14:09:09;5.27;;;3.47;;
14326;SDS011;7247;53.330;-1.180;2023-11-22T14:11:39;3.70;;;3.40;;
14326;SDS011;7247;53.330;-1.180;2023-11-22T14:14:05;4.20;;;3.17;;
14326;SDS011;7247;53.330;-1.180;2023-11-22T14:16:34;3.30;;;2.20;;
14326;SDS011;7247;53.330;-1.180;2023-11-22T14:19:03;2.83;;;1.70;;
14326;SDS011;7247;53.330;-1.180;2023-11-22T14:21:31;3.10;;;1.57;;
14326;SDS011;7247;53.330;-1.180;2023-11-22T14:23:59;2.03;;;1.50;;
14326;SDS011;7247;53.330;-1.180;2023-11-22T14:26:25;3.53;;;1.30;;
14326;SDS011;7247;53.330;-1.180;2023-11-22T14:28:53;2.43;;;1.10;;
14326;SDS011;7247;53.330;-1.180;2023-11-22T14:31:19;1.53;;;1.10;;
14326;SDS011;7247;53.330;-1.180;2023-11-22T14:33:47;2.57;;;1.00;;
14326;SDS011;7247;53.330;-1.180;2023-11-22T14:36:14;2.27;;;1.10;;
14326;SDS011;7247;53.330;-1.180;2023-11-22T14:38:41;2.13;;;0.90;;
14326;SDS011;7247;53.330;-1.180;2023-11-22T14:41:07;2.03;;;0.97;;
14326;SDS011;7247;53.330;-1.180;2023-11-22T14:43:35;2.70;;;1.00;;
14326;SDS011;7247;53.330;-1.180;2023-11-22T14:46:03;1.90;;;1.20;;
14326;SDS011;7247;53.330;-1.180;2023-11-22T14:48:30;3.80;;;1.10;;